sensor_id;sensor_type;location;lat;lon;timestamp;pressure;altitude;pressure_sealevel;temperature;humidity
65013;BME280;51715;39.432;-77.518;2024-01-15T00:01:30;100010.11;;;0.42;22.31
65013;BME280;51715;39.432;-77.518;2024-01-15T00:04:00;100027.15;;;0.62;22.31
65013;BME280;51715;39.432;-77.518;2024-01-15T00:06:28;100034.91;;;0.58;22.30
65013;BME280;51715;39.432;-77.518;2024-01-15T00:08:58;100042.74;;;0.52;22.10
65013;BME280;51715;39.432;-77.518;2024-01-15T00:11:27;100042.20;;;0.32;21.14
65013;BME280;51715;39.432;-77.518;2024-01-15T00:13:57;100048.32;;;0.43;20.82
65013;BME280;51715;39.432;-77.518;2024-01-15T00:16:26;100050.31;;;0.49;20.97
65013;BME280;51715;39.432;-77.518;2024-01-15T00:18:54;100047.33;;;0.51;21.64
65013;BME280;51715;39.432;-77.518;2024-01-15T00:21:23;100041.77;;;0.49;21.88
65013;BME280;51715;39.432;-77.518;2024-01-15T00:23:53;100035.82;;;0.40;21.89
65013;BME280;51715;39.432;-77.518;2024-01-15T00:26:22;100039.96;;;0.27;21.99
65013;BME280;51715;39.432;-77.518;2024-01-15T00:28:51;100051.49;;;0.11;22.83
65013;BME280;51715;39.432;-77.518;2024-01-15T00:31:19;100061.84;;;0.15;22.55
65013;BME280;51715;39.432;-77.518;2024-01-15T00:33:49;100077.10;;;0.28;22.94
65013;BME280;51715;39.432;-77.518;2024-01-15T00:36:17;100081.50;;;0.23;22.62
65013;BME280;51715;39.432;-77.518;2024-01-15T00:38:47;100088.03;;;-0.01;22.16
65013;BME280;51715;39.432;-77.518;2024-01-15T00:41:15;100079.66;;;0.14;22.40
65013;BME280;51715;39.432;-77.518;2024-01-15T00:43:44;100075.05;;;-0.33;22.72
65013;BME280;51715;39.432;-77.518;2024-01-15T00:46:15;100073.42;;;-0.15;22.99
65013;BME280;51715;39.432;-77.518;2024-01-15T00:48:45;100079.30;;;-0.34;23.09
65013;BME280;51715;39.432;-77.518;2024-01-15T00:51:14;100090.80;;;-0.92;22.27
65013;BME280;51715;39.432;-77.518;2024-01-15T00:53:42;100097.86;;;-0.21;22.39
65013;BME280;51715;39.432;-77.518;2024-01-15T00:56:11;100091.75;;;-0.21;21.18
65013;BME280;51715;39.432;-77.518;2024-01-15T00:58:39;100085.59;;;-0.46;20.42
65013;BME280;51715;39.432;-77.518;2024-01-15T01:01:08;100092.06;;;-0.86;19.95
65013;BME280;51715;39.432;-77.518;2024-01-15T01:03:36;100094.49;;;-0.54;19.73
65013;BME280;51715;39.432;-77.518;2024-01-15T01:06:05;100082.14;;;-0.70;19.72
65013;BME280;51715;39.432;-77.518;2024-01-15T01:08:36;100087.31;;;-0.39;19.55
65013;BME280;51715;39.432;-77.518;2024-01-15T01:11:05;100092.10;;;-0.29;19.42
65013;BME280;51715;39.432;-77.518;2024-01-15T01:13:34;100082.18;;;-0.95;19.04
65013;BME280;51715;39.432;-77.518;2024-01-15T01:16:03;100073.70;;;-0.90;18.81
65013;BME280;51715;39.432;-77.518;2024-01-15T01:18:32;100074.47;;;-0.61;18.73
65013;BME280;51715;39.432;-77.518;2024-01-15T01:21:01;100061.04;;;-0.61;18.81
65013;BME280;51715;39.432;-77.518;2024-01-15T01:23:29;100049.74;;;-0.45;18.37
65013;BME280;51715;39.432;-77.518;2024-01-15T01:25:59;100040.73;;;-0.63;18.29
65013;BME280;51715;39.432;-77.518;2024-01-15T01:28:29;100056.35;;;-0.54;18.46
65013;BME280;51715;39.432;-77.518;2024-01-15T01:31:01;100071.82;;;-0.62;18.45
65013;BME280;51715;39.432;-77.518;2024-01-15T01:33:28;100074.42;;;-0.25;18.66
65013;BME280;51715;39.432;-77.518;2024-01-15T01:35:58;100063.30;;;-0.45;18.36
65013;BME280;51715;39.432;-77.518;2024-01-15T01:38:28;100058.71;;;-0.09;18.65
65013;BME280;51715;39.432;-77.518;2024-01-15T01:40:57;100058.70;;;-0.42;18.23
65013;BME280;51715;39.432;-77.518;2024-01-15T01:43:27;100059.61;;;-0.33;18.23
65013;BME280;51715;39.432;-77.518;2024-01-15T01:45:59;100053.64;;;-0.64;18.51
65013;BME280;51715;39.432;-77.518;2024-01-15T01:48:31;100047.64;;;-0.50;18.54
65013;BME280;51715;39.432;-77.518;2024-01-15T01:51:01;100049.42;;;-0.37;18.47
65013;BME280;51715;39.432;-77.518;2024-01-15T01:53:33;100044.13;;;-0.03;18.71
65013;BME280;51715;39.432;-77.518;2024-01-15T01:56:03;100039.39;;;-0.20;18.94
65013;BME280;51715;39.432;-77.518;2024-01-15T01:58:34;100043.95;;;-0.36;18.72
65013;BME280;51715;39.432;-77.518;2024-01-15T02:01:03;100049.43;;;-0.12;18.80
65013;BME280;51715;39.432;-77.518;2024-01-15T02:03:34;100047.58;;;0.34;18.60
65013;BME280;51715;39.432;-77.518;2024-01-15T02:06:05;100040.85;;;-0.24;18.57
65013;BME280;51715;39.432;-77.518;2024-01-15T02:08:36;100050.30;;;-0.14;18.60
65013;BME280;51715;39.432;-77.518;2024-01-15T02:11:04;100057.67;;;-0.60;18.48
65013;BME280;51715;39.432;-77.518;2024-01-15T02:13:34;100056.22;;;-0.06;18.51
65013;BME280;51715;39.432;-77.518;2024-01-15T02:16:04;100067.31;;;-1.02;18.93
65013;BME280;51715;39.432;-77.518;2024-01-15T02:18:41;100070.72;;;-1.16;19.18
65013;BME280;51715;39.432;-77.518;2024-01-15T02:21:13;100078.44;;;-0.28;18.97
65013;BME280;51715;39.432;-77.518;2024-01-15T02:23:44;100065.32;;;-0.32;18.82
65013;BME280;51715;39.432;-77.518;2024-01-15T02:26:14;100068.76;;;-0.15;18.56
65013;BME280;51715;39.432;-77.518;2024-01-15T02:28:43;100056.18;;;-0.21;18.70
65013;BME280;51715;39.432;-77.518;2024-01-15T02:31:13;100050.68;;;0.16;18.55
65013;BME280;51715;39.432;-77.518;2024-01-15T02:33:44;100047.05;;;-0.32;18.86
65013;BME280;51715;39.432;-77.518;2024-01-15T02:36:14;100044.59;;;-0.02;19.08
65013;BME280;51715;39.432;-77.518;2024-01-15T02:38:44;100056.07;;;-0.08;19.52
65013;BME280;51715;39.432;-77.518;2024-01-15T02:41:14;100065.54;;;-0.33;19.84
65013;BME280;51715;39.432;-77.518;2024-01-15T02:43:45;100064.84;;;-0.46;19.45
65013;BME280;51715;39.432;-77.518;2024-01-15T02:46:14;100062.52;;;-0.26;19.74
65013;BME280;51715;39.432;-77.518;2024-01-15T02:48:44;100059.71;;;-0.41;19.90
65013;BME280;51715;39.432;-77.518;2024-01-15T02:51:15;100067.87;;;-0.75;19.99
65013;BME280;51715;39.432;-77.518;2024-01-15T02:53:46;100070.74;;;-0.90;19.93
65013;BME280;51715;39.432;-77.518;2024-01-15T02:56:14;100072.56;;;-0.68;19.82
65013;BME280;51715;39.432;-77.518;2024-01-15T02:58:43;100067.97;;;-0.19;19.78
65013;BME280;51715;39.432;-77.518;2024-01-15T03:01:12;100076.29;;;-0.07;19.45
65013;BME280;51715;39.432;-77.518;2024-01-15T03:03:41;100087.76;;;-0.20;19.49
65013;BME280;51715;39.432;-77.518;2024-01-15T03:06:11;100096.73;;;-0.33;19.40
65013;BME280;51715;39.432;-77.518;2024-01-15T03:08:39;100099.20;;;-0.29;19.61
65013;BME280;51715;39.432;-77.518;2024-01-15T03:11:09;100107.49;;;-0.20;19.95
65013;BME280;51715;39.432;-77.518;2024-01-15T03:13:38;100113.30;;;-0.39;19.65
65013;BME280;51715;39.432;-77.518;2024-01-15T03:16:07;100118.63;;;0.02;19.60
65013;BME280;51715;39.432;-77.518;2024-01-15T03:18:35;100118.55;;;-0.19;19.59
65013;BME280;51715;39.432;-77.518;2024-01-15T03:21:05;100116.20;;;-0.08;19.91
65013;BME280;51715;39.432;-77.518;2024-01-15T03:23:33;100123.59;;;-0.41;20.08
65013;BME280;51715;39.432;-77.518;2024-01-15T03:26:02;100122.98;;;-0.43;20.28
65013;BME280;51715;39.432;-77.518;2024-01-15T03:28:33;100117.93;;;-0.34;19.99
65013;BME280;51715;39.432;-77.518;2024-01-15T03:31:01;100121.44;;;-0.64;20.22
65013;BME280;51715;39.432;-77.518;2024-01-15T03:33:29;100130.00;;;-0.96;20.54
65013;BME280;51715;39.432;-77.518;2024-01-15T03:35:57;100131.75;;;-0.83;20.45
65013;BME280;51715;39.432;-77.518;2024-01-15T03:38:28;100142.41;;;-0.49;20.44
65013;BME280;51715;39.432;-77.518;2024-01-15T03:40:59;100144.60;;;-0.83;20.55
65013;BME280;51715;39.432;-77.518;2024-01-15T03:43:29;100147.48;;;-0.74;20.33
65013;BME280;51715;39.432;-77.518;2024-01-15T03:45:57;100143.57;;;-0.75;20.23
65013;BME280;51715;39.432;-77.518;2024-01-15T03:48:26;100141.97;;;-0.65;20.04
65013;BME280;51715;39.432;-77.518;2024-01-15T03:50:55;100149.47;;;-1.31;20.18
65013;BME280;51715;39.432;-77.518;2024-01-15T03:53:23;100156.92;;;-0.78;20.05
65013;BME280;51715;39.432;-77.518;2024-01-15T03:55:53;100156.31;;;-0.82;20.02
65013;BME280;51715;39.432;-77.518;2024-01-15T03:58:23;100160.58;;;-0.62;20.00
65013;BME280;51715;39.432;-77.518;2024-01-15T04:00:51;100159.75;;;-0.43;20.69
65013;BME280;51715;39.432;-77.518;2024-01-15T04:03:21;100164.28;;;-0.62;20.82
65013;BME280;51715;39.432;-77.518;2024-01-15T04:05:50;100166.07;;;-1.09;21.42
65013;BME280;51715;39.432;-77.518;2024-01-15T04:08:18;100158.68;;;-0.72;21.43
65013;BME280;51715;39.432;-77.518;2024-01-15T04:10:46;100160.30;;;-0.64;21.47
65013;BME280;51715;39.432;-77.518;2024-01-15T04:13:14;100168.17;;;-0.57;20.92
65013;BME280;51715;39.432;-77.518;2024-01-15T04:15:43;100168.94;;;-0.40;21.04
65013;BME280;51715;39.432;-77.518;2024-01-15T04:18:11;100168.15;;;-0.69;21.26
65013;BME280;51715;39.432;-77.518;2024-01-15T04:20:39;100164.26;;;-0.06;21.50
65013;BME280;51715;39.432;-77.518;2024-01-15T04:23:08;100163.78;;;-0.37;21.36
65013;BME280;51715;39.432;-77.518;2024-01-15T04:25:36;100156.24;;;-0.27;21.55
65013;BME280;51715;39.432;-77.518;2024-01-15T04:28:05;100160.66;;;-0.25;21.62
65013;BME280;51715;39.432;-77.518;2024-01-15T04:30:34;100154.52;;;-0.43;21.66
65013;BME280;51715;39.432;-77.518;2024-01-15T04:33:03;100157.90;;;-0.59;22.19
65013;BME280;51715;39.432;-77.518;2024-01-15T04:35:31;100163.46;;;-0.79;22.59
65013;BME280;51715;39.432;-77.518;2024-01-15T04:38:00;100161.52;;;-0.42;23.38
65013;BME280;51715;39.432;-77.518;2024-01-15T04:40:28;100157.83;;;-0.66;23.07
65013;BME280;51715;39.432;-77.518;2024-01-15T04:42:57;100153.09;;;-0.45;23.14
65013;BME280;51715;39.432;-77.518;2024-01-15T04:45:24;100151.67;;;-0.05;23.05
65013;BME280;51715;39.432;-77.518;2024-01-15T04:47:53;100153.52;;;-0.38;22.79
65013;BME280;51715;39.432;-77.518;2024-01-15T04:50:22;100155.33;;;-0.35;22.50
65013;BME280;51715;39.432;-77.518;2024-01-15T04:52:51;100155.53;;;-0.12;22.47
65013;BME280;51715;39.432;-77.518;2024-01-15T04:55:19;100150.62;;;0.12;22.54
65013;BME280;51715;39.432;-77.518;2024-01-15T04:57:47;100155.69;;;-0.03;21.96
65013;BME280;51715;39.432;-77.518;2024-01-15T05:04:05;100130.42;;;0.54;21.25
65013;BME280;51715;39.432;-77.518;2024-01-15T05:06:35;100124.58;;;0.70;20.85
65013;BME280;51715;39.432;-77.518;2024-01-15T05:09:03;100127.42;;;0.40;20.99
65013;BME280;51715;39.432;-77.518;2024-01-15T05:11:31;100135.37;;;0.69;19.96
65013;BME280;51715;39.432;-77.518;2024-01-15T05:14:00;100133.37;;;0.47;19.83
65013;BME280;51715;39.432;-77.518;2024-01-15T05:16:28;100128.77;;;0.37;19.93
65013;BME280;51715;39.432;-77.518;2024-01-15T05:18:57;100124.88;;;0.00;20.23
65013;BME280;51715;39.432;-77.518;2024-01-15T05:21:27;100123.96;;;0.04;20.57
65013;BME280;51715;39.432;-77.518;2024-01-15T05:23:55;100120.30;;;0.27;21.43
65013;BME280;51715;39.432;-77.518;2024-01-15T05:26:24;100121.51;;;-0.31;22.04
65013;BME280;51715;39.432;-77.518;2024-01-15T05:28:53;100128.38;;;-0.42;22.24
65013;BME280;51715;39.432;-77.518;2024-01-15T05:31:21;100136.60;;;-0.18;22.08
65013;BME280;51715;39.432;-77.518;2024-01-15T05:33:49;100144.93;;;0.43;21.51
65013;BME280;51715;39.432;-77.518;2024-01-15T05:36:17;100143.43;;;0.07;21.42
65013;BME280;51715;39.432;-77.518;2024-01-15T05:38:45;100147.73;;;0.03;21.16
65013;BME280;51715;39.432;-77.518;2024-01-15T05:41:14;100139.11;;;0.04;20.80
65013;BME280;51715;39.432;-77.518;2024-01-15T05:43:43;100130.97;;;0.49;20.73
65013;BME280;51715;39.432;-77.518;2024-01-15T05:46:12;100126.83;;;0.33;20.49
65013;BME280;51715;39.432;-77.518;2024-01-15T05:48:40;100124.54;;;0.69;20.84
65013;BME280;51715;39.432;-77.518;2024-01-15T05:51:08;100129.42;;;0.30;20.68
65013;BME280;51715;39.432;-77.518;2024-01-15T05:53:37;100131.71;;;0.39;20.18
65013;BME280;51715;39.432;-77.518;2024-01-15T05:56:05;100138.32;;;-1.55;21.50
65013;BME280;51715;39.432;-77.518;2024-01-15T05:58:34;100146.60;;;-1.13;21.36
65013;BME280;51715;39.432;-77.518;2024-01-15T06:01:01;100145.96;;;-0.33;21.16
65013;BME280;51715;39.432;-77.518;2024-01-15T06:03:31;100148.45;;;-0.05;20.39
65013;BME280;51715;39.432;-77.518;2024-01-15T06:05:59;100150.64;;;0.67;19.85
65013;BME280;51715;39.432;-77.518;2024-01-15T06:08:29;100156.36;;;-0.21;20.30
65013;BME280;51715;39.432;-77.518;2024-01-15T06:10:58;100157.79;;;0.56;20.53
65013;BME280;51715;39.432;-77.518;2024-01-15T06:13:27;100154.36;;;0.32;19.91
65013;BME280;51715;39.432;-77.518;2024-01-15T06:15:56;100153.76;;;0.28;20.48
65013;BME280;51715;39.432;-77.518;2024-01-15T06:18:24;100153.46;;;0.48;19.93
65013;BME280;51715;39.432;-77.518;2024-01-15T06:20:52;100161.82;;;0.32;19.76
65013;BME280;51715;39.432;-77.518;2024-01-15T06:23:20;100175.22;;;0.00;19.65
65013;BME280;51715;39.432;-77.518;2024-01-15T06:25:49;100186.30;;;-0.17;19.92
65013;BME280;51715;39.432;-77.518;2024-01-15T06:28:18;100193.84;;;0.43;20.29
65013;BME280;51715;39.432;-77.518;2024-01-15T06:30:45;100184.65;;;0.15;20.14
65013;BME280;51715;39.432;-77.518;2024-01-15T06:33:13;100173.62;;;0.56;20.00
65013;BME280;51715;39.432;-77.518;2024-01-15T06:35:42;100174.12;;;0.54;20.10
65013;BME280;51715;39.432;-77.518;2024-01-15T06:38:10;100183.91;;;0.54;19.68
65013;BME280;51715;39.432;-77.518;2024-01-15T06:40:38;100187.54;;;0.46;19.76
65013;BME280;51715;39.432;-77.518;2024-01-15T06:43:06;100185.04;;;0.80;19.65
65013;BME280;51715;39.432;-77.518;2024-01-15T06:45:34;100182.69;;;0.47;19.91
65013;BME280;51715;39.432;-77.518;2024-01-15T06:48:02;100190.29;;;0.28;20.19
65013;BME280;51715;39.432;-77.518;2024-01-15T06:50:30;100188.11;;;0.08;20.11
65013;BME280;51715;39.432;-77.518;2024-01-15T06:53:00;100194.09;;;0.01;19.64
65013;BME280;51715;39.432;-77.518;2024-01-15T06:55:28;100193.94;;;0.41;19.32
65013;BME280;51715;39.432;-77.518;2024-01-15T06:57:56;100186.29;;;0.55;19.53
65013;BME280;51715;39.432;-77.518;2024-01-15T07:00:24;100194.27;;;0.74;20.27
65013;BME280;51715;39.432;-77.518;2024-01-15T07:02:52;100201.84;;;0.33;19.78
65013;BME280;51715;39.432;-77.518;2024-01-15T07:05:21;100207.82;;;0.45;19.58
65013;BME280;51715;39.432;-77.518;2024-01-15T07:07:49;100208.27;;;0.67;19.96
65013;BME280;51715;39.432;-77.518;2024-01-15T07:10:17;100209.25;;;0.24;20.13
65013;BME280;51715;39.432;-77.518;2024-01-15T07:12:46;100214.82;;;0.60;20.69
65013;BME280;51715;39.432;-77.518;2024-01-15T07:15:16;100217.17;;;0.26;20.31
65013;BME280;51715;39.432;-77.518;2024-01-15T07:17:44;100220.84;;;0.49;20.54
65013;BME280;51715;39.432;-77.518;2024-01-15T07:20:14;100222.80;;;0.60;20.64
65013;BME280;51715;39.432;-77.518;2024-01-15T07:22:46;100231.76;;;0.69;20.10
65013;BME280;51715;39.432;-77.518;2024-01-15T07:25:17;100236.60;;;0.05;20.30
65013;BME280;51715;39.432;-77.518;2024-01-15T07:27:45;100234.94;;;0.51;20.31
65013;BME280;51715;39.432;-77.518;2024-01-15T07:30:13;100239.47;;;0.45;20.44
65013;BME280;51715;39.432;-77.518;2024-01-15T07:32:42;100247.86;;;0.94;20.50
65013;BME280;51715;39.432;-77.518;2024-01-15T07:35:10;100248.70;;;0.92;20.24
65013;BME280;51715;39.432;-77.518;2024-01-15T07:37:40;100242.89;;;0.97;19.94
65013;BME280;51715;39.432;-77.518;2024-01-15T07:40:10;100248.09;;;0.69;19.75
65013;BME280;51715;39.432;-77.518;2024-01-15T07:42:38;100244.81;;;-0.44;20.64
65013;BME280;51715;39.432;-77.518;2024-01-15T07:45:07;100247.42;;;0.23;20.67
65013;BME280;51715;39.432;-77.518;2024-01-15T07:47:35;100243.63;;;0.33;19.97
65013;BME280;51715;39.432;-77.518;2024-01-15T07:50:04;100242.38;;;0.53;19.84
65013;BME280;51715;39.432;-77.518;2024-01-15T07:52:33;100252.92;;;0.49;20.17
65013;BME280;51715;39.432;-77.518;2024-01-15T07:55:02;100262.53;;;0.66;19.79
65013;BME280;51715;39.432;-77.518;2024-01-15T07:57:30;100264.23;;;1.06;20.08
65013;BME280;51715;39.432;-77.518;2024-01-15T08:00:00;100261.54;;;1.00;20.11
65013;BME280;51715;39.432;-77.518;2024-01-15T08:02:28;100267.29;;;1.14;19.86
65013;BME280;51715;39.432;-77.518;2024-01-15T08:04:57;100264.97;;;1.05;19.66
65013;BME280;51715;39.432;-77.518;2024-01-15T08:07:25;100261.63;;;0.55;20.14
65013;BME280;51715;39.432;-77.518;2024-01-15T08:09:53;100266.50;;;0.48;19.66
65013;BME280;51715;39.432;-77.518;2024-01-15T08:12:23;100259.57;;;0.77;19.99
65013;BME280;51715;39.432;-77.518;2024-01-15T08:14:51;100264.39;;;0.97;20.32
65013;BME280;51715;39.432;-77.518;2024-01-15T08:17:21;100264.85;;;1.07;19.97
65013;BME280;51715;39.432;-77.518;2024-01-15T08:19:50;100261.53;;;1.10;20.23
65013;BME280;51715;39.432;-77.518;2024-01-15T08:22:18;100268.35;;;1.51;19.86
65013;BME280;51715;39.432;-77.518;2024-01-15T08:24:46;100272.77;;;1.85;20.40
65013;BME280;51715;39.432;-77.518;2024-01-15T08:27:15;100273.98;;;1.44;20.52
65013;BME280;51715;39.432;-77.518;2024-01-15T08:29:44;100269.51;;;1.73;20.12
65013;BME280;51715;39.432;-77.518;2024-01-15T08:32:13;100267.86;;;1.45;19.79
65013;BME280;51715;39.432;-77.518;2024-01-15T08:34:41;100263.29;;;1.69;19.87
65013;BME280;51715;39.432;-77.518;2024-01-15T08:37:09;100255.73;;;1.39;19.79
65013;BME280;51715;39.432;-77.518;2024-01-15T08:39:37;100254.12;;;1.30;19.84
65013;BME280;51715;39.432;-77.518;2024-01-15T08:42:05;100253.77;;;1.55;19.66
65013;BME280;51715;39.432;-77.518;2024-01-15T08:44:33;100257.37;;;1.33;19.79
65013;BME280;51715;39.432;-77.518;2024-01-15T08:47:02;100255.22;;;0.91;20.42
65013;BME280;51715;39.432;-77.518;2024-01-15T08:49:30;100257.84;;;0.96;20.62
65013;BME280;51715;39.432;-77.518;2024-01-15T08:51:58;100261.46;;;1.07;20.79
65013;BME280;51715;39.432;-77.518;2024-01-15T08:54:27;100262.57;;;1.13;20.76
65013;BME280;51715;39.432;-77.518;2024-01-15T08:56:55;100266.75;;;1.37;20.61
65013;BME280;51715;39.432;-77.518;2024-01-15T08:59:26;100269.47;;;1.10;20.29
65013;BME280;51715;39.432;-77.518;2024-01-15T09:01:54;100268.44;;;1.37;20.06
65013;BME280;51715;39.432;-77.518;2024-01-15T09:04:22;100269.97;;;0.06;20.26
65013;BME280;51715;39.432;-77.518;2024-01-15T09:06:50;100271.68;;;0.05;20.45
65013;BME280;51715;39.432;-77.518;2024-01-15T09:09:18;100270.07;;;-0.06;20.50
65013;BME280;51715;39.432;-77.518;2024-01-15T09:11:46;100269.61;;;-0.28;20.56
65013;BME280;51715;39.432;-77.518;2024-01-15T09:14:14;100271.64;;;-0.51;21.18
65013;BME280;51715;39.432;-77.518;2024-01-15T09:16:43;100274.22;;;0.31;21.22
65013;BME280;51715;39.432;-77.518;2024-01-15T09:19:12;100270.67;;;0.50;21.08
65013;BME280;51715;39.432;-77.518;2024-01-15T09:21:41;100267.81;;;0.51;20.80
65013;BME280;51715;39.432;-77.518;2024-01-15T09:24:08;100277.47;;;-0.10;21.28
65013;BME280;51715;39.432;-77.518;2024-01-15T09:26:38;100279.24;;;0.02;21.43
65013;BME280;51715;39.432;-77.518;2024-01-15T09:29:06;100277.58;;;-0.02;21.20
65013;BME280;51715;39.432;-77.518;2024-01-15T09:31:35;100276.64;;;-0.14;21.66
65013;BME280;51715;39.432;-77.518;2024-01-15T09:34:03;100288.50;;;0.08;21.70
65013;BME280;51715;39.432;-77.518;2024-01-15T09:36:32;100291.39;;;-1.58;23.02
65013;BME280;51715;39.432;-77.518;2024-01-15T09:38:59;100287.00;;;-0.80;23.00
65013;BME280;51715;39.432;-77.518;2024-01-15T09:41:28;100279.25;;;-0.24;23.10
65013;BME280;51715;39.432;-77.518;2024-01-15T09:43:56;100285.62;;;0.18;23.45
65013;BME280;51715;39.432;-77.518;2024-01-15T09:46:24;100285.15;;;-0.00;23.63
65013;BME280;51715;39.432;-77.518;2024-01-15T09:48:52;100285.18;;;0.15;23.69
65013;BME280;51715;39.432;-77.518;2024-01-15T09:51:21;100291.50;;;0.10;23.68
65013;BME280;51715;39.432;-77.518;2024-01-15T09:53:51;100291.10;;;-0.01;24.68
65013;BME280;51715;39.432;-77.518;2024-01-15T09:56:19;100293.19;;;-0.52;25.91
65013;BME280;51715;39.432;-77.518;2024-01-15T09:58:48;100291.88;;;-0.02;26.73
65013;BME280;51715;39.432;-77.518;2024-01-15T10:01:18;100291.91;;;0.13;26.57
65013;BME280;51715;39.432;-77.518;2024-01-15T10:03:48;100296.79;;;-0.01;26.76
65013;BME280;51715;39.432;-77.518;2024-01-15T10:06:17;100297.86;;;0.28;26.30
65013;BME280;51715;39.432;-77.518;2024-01-15T10:08:48;100294.26;;;0.48;26.64
65013;BME280;51715;39.432;-77.518;2024-01-15T10:11:17;100289.83;;;0.08;27.20
65013;BME280;51715;39.432;-77.518;2024-01-15T10:13:45;100296.56;;;0.04;26.91
65013;BME280;51715;39.432;-77.518;2024-01-15T10:16:14;100300.44;;;0.23;26.91
65013;BME280;51715;39.432;-77.518;2024-01-15T10:18:42;100298.17;;;0.39;27.26
65013;BME280;51715;39.432;-77.518;2024-01-15T10:21:11;100295.51;;;-0.04;27.39
65013;BME280;51715;39.432;-77.518;2024-01-15T10:23:39;100291.06;;;0.29;27.40
65013;BME280;51715;39.432;-77.518;2024-01-15T10:26:08;100289.94;;;0.35;26.99
65013;BME280;51715;39.432;-77.518;2024-01-15T10:28:36;100292.70;;;0.53;26.84
65013;BME280;51715;39.432;-77.518;2024-01-15T10:31:05;100296.48;;;0.37;26.92
65013;BME280;51715;39.432;-77.518;2024-01-15T10:33:33;100294.83;;;0.32;26.81
65013;BME280;51715;39.432;-77.518;2024-01-15T10:36:01;100298.29;;;0.47;26.57
65013;BME280;51715;39.432;-77.518;2024-01-15T10:38:29;100302.77;;;0.79;26.74
65013;BME280;51715;39.432;-77.518;2024-01-15T10:40:58;100301.59;;;0.42;26.92
65013;BME280;51715;39.432;-77.518;2024-01-15T10:43:25;100303.25;;;0.07;27.13
65013;BME280;51715;39.432;-77.518;2024-01-15T10:45:53;100298.81;;;0.41;27.26
65013;BME280;51715;39.432;-77.518;2024-01-15T10:48:22;100301.24;;;0.66;27.22
65013;BME280;51715;39.432;-77.518;2024-01-15T10:50:49;100313.33;;;0.76;27.31
65013;BME280;51715;39.432;-77.518;2024-01-15T10:53:18;100312.86;;;0.37;27.19
65013;BME280;51715;39.432;-77.518;2024-01-15T10:55:47;100312.22;;;0.64;26.89
65013;BME280;51715;39.432;-77.518;2024-01-15T10:58:16;100310.19;;;0.54;26.77
65013;BME280;51715;39.432;-77.518;2024-01-15T11:00:44;100316.92;;;0.37;27.04
65013;BME280;51715;39.432;-77.518;2024-01-15T11:03:14;100318.94;;;0.97;26.90
65013;BME280;51715;39.432;-77.518;2024-01-15T11:05:43;100317.08;;;0.52;27.09
65013;BME280;51715;39.432;-77.518;2024-01-15T11:08:12;100322.60;;;0.95;27.09
65013;BME280;51715;39.432;-77.518;2024-01-15T11:10:42;100317.34;;;0.76;27.05
65013;BME280;51715;39.432;-77.518;2024-01-15T11:13:13;100316.75;;;0.47;27.20
65013;BME280;51715;39.432;-77.518;2024-01-15T11:16:15;100310.76;;;0.44;27.50
65013;BME280;51715;39.432;-77.518;2024-01-15T11:21:30;100309.66;;;0.31;27.45
65013;BME280;51715;39.432;-77.518;2024-01-15T11:24:00;100304.43;;;0.56;27.64
65013;BME280;51715;39.432;-77.518;2024-01-15T11:26:30;100301.78;;;0.37;27.74
65013;BME280;51715;39.432;-77.518;2024-01-15T11:29:03;100302.72;;;0.47;27.68
65013;BME280;51715;39.432;-77.518;2024-01-15T11:31:58;100294.07;;;-0.05;28.35
65013;BME280;51715;39.432;-77.518;2024-01-15T11:34:59;100304.30;;;-0.02;28.68
65013;BME280;51715;39.432;-77.518;2024-01-15T11:37:28;100309.64;;;0.04;29.49
65013;BME280;51715;39.432;-77.518;2024-01-15T11:40:02;100317.09;;;0.12;30.77
65013;BME280;51715;39.432;-77.518;2024-01-15T11:42:30;100323.58;;;-0.85;32.59
65013;BME280;51715;39.432;-77.518;2024-01-15T11:44:58;100317.50;;;-0.38;33.03
65013;BME280;51715;39.432;-77.518;2024-01-15T11:47:53;100312.26;;;-1.03;34.78
65013;BME280;51715;39.432;-77.518;2024-01-15T11:50:30;100309.73;;;-1.05;35.62
65013;BME280;51715;39.432;-77.518;2024-01-15T11:53:01;100311.62;;;-1.34;36.55
65013;BME280;51715;39.432;-77.518;2024-01-15T11:55:34;100300.68;;;-1.79;38.24
65013;BME280;51715;39.432;-77.518;2024-01-15T11:58:04;100297.73;;;-1.31;37.30
65013;BME280;51715;39.432;-77.518;2024-01-15T12:00:40;100306.72;;;-1.12;37.31
65013;BME280;51715;39.432;-77.518;2024-01-15T12:03:12;100304.33;;;-1.03;37.58
65013;BME280;51715;39.432;-77.518;2024-01-15T12:05:41;100313.31;;;-1.27;38.16
65013;BME280;51715;39.432;-77.518;2024-01-15T12:08:10;100299.92;;;-0.63;37.61
65013;BME280;51715;39.432;-77.518;2024-01-15T12:10:37;100287.81;;;-0.62;37.43
65013;BME280;51715;39.432;-77.518;2024-01-15T12:13:10;100300.16;;;-1.52;37.98
65013;BME280;51715;39.432;-77.518;2024-01-15T12:15:39;100294.12;;;-1.14;37.34
65013;BME280;51715;39.432;-77.518;2024-01-15T12:18:09;100290.18;;;-0.75;37.05
65013;BME280;51715;39.432;-77.518;2024-01-15T12:20:39;100295.92;;;-0.65;36.77
65013;BME280;51715;39.432;-77.518;2024-01-15T12:23:08;100295.90;;;-1.22;37.73
65013;BME280;51715;39.432;-77.518;2024-01-15T12:25:37;100295.10;;;-1.03;37.52
65013;BME280;51715;39.432;-77.518;2024-01-15T12:28:07;100303.93;;;-0.82;36.79
65013;BME280;51715;39.432;-77.518;2024-01-15T12:30:36;100296.50;;;-0.54;36.20
65013;BME280;51715;39.432;-77.518;2024-01-15T12:33:08;100289.92;;;-0.41;36.29
65013;BME280;51715;39.432;-77.518;2024-01-15T12:35:36;100294.49;;;-0.26;36.15
65013;BME280;51715;39.432;-77.518;2024-01-15T12:38:07;100296.44;;;-0.84;36.65
65013;BME280;51715;39.432;-77.518;2024-01-15T12:40:35;100311.32;;;-0.90;36.91
65013;BME280;51715;39.432;-77.518;2024-01-15T12:43:03;100313.81;;;-0.58;36.27
65013;BME280;51715;39.432;-77.518;2024-01-15T12:45:33;100297.37;;;-0.25;35.65
65013;BME280;51715;39.432;-77.518;2024-01-15T12:48:02;100296.03;;;-0.06;35.41
65013;BME280;51715;39.432;-77.518;2024-01-15T12:50:30;100307.10;;;-1.01;36.73
65013;BME280;51715;39.432;-77.518;2024-01-15T12:52:58;100306.32;;;-0.33;36.66